sensor_id;sensor_type;location;lat;lon;timestamp;pressure;altitude;pressure_sealevel;temperature;humidity
73624;BME280;61921;53.226;-1.296;2022-12-20T00:02:00;98985.51;;;12.69;100.00
73624;BME280;61921;53.226;-1.296;2022-12-20T00:04:25;98982.99;;;12.73;100.00
73624;BME280;61921;53.226;-1.296;2022-12-20T00:06:50;98982.18;;;12.75;100.00
73624;BME280;61921;53.226;-1.296;2022-12-20T00:09:16;98983.73;;;12.88;100.00
73624;BME280;61921;53.226;-1.296;2022-12-20T00:11:41;98986.01;;;12.77;100.00
73624;BME280;61921;53.226;-1.296;2022-12-20T00:14:07;98988.52;;;12.78;100.00
73624;BME280;61921;53.226;-1.296;2022-12-20T00:16:32;98989.71;;;12.76;100.00
73624;BME280;61921;53.226;-1.296;2022-12-20T00:18:59;98989.28;;;12.73;100.00
73624;BME280;61921;53.226;-1.296;2022-12-20T00:21:23;98983.36;;;12.66;100.00
73624;BME280;61921;53.226;-1.296;2022-12-20T00:23:48;98979.85;;;12.55;100.00
73624;BME280;61921;53.226;-1.296;2022-12-20T00:26:15;98981.40;;;12.86;100.00
73624;BME280;61921;53.226;-1.296;2022-12-20T00:28:39;98977.72;;;12.95;100.00
73624;BME280;61921;53.226;-1.296;2022-12-20T00:31:04;98973.56;;;13.14;100.00
73624;BME280;61921;53.226;-1.296;2022-12-20T00:33:29;98979.57;;;13.19;98.54
73624;BME280;61921;53.226;-1.296;2022-12-20T00:35:55;98977.74;;;12.82;99.42
73624;BME280;61921;53.226;-1.296;2022-12-20T00:38:19;98982.74;;;12.32;100.00
73624;BME280;61921;53.226;-1.296;2022-12-20T00:40:45;98985.87;;;12.09;100.00
73624;BME280;61921;53.226;-1.296;2022-12-20T00:43:10;98986.99;;;11.83;100.00
73624;BME280;61921;53.226;-1.296;2022-12-20T00:45:35;98981.90;;;11.61;100.00
73624;BME280;61921;53.226;-1.296;2022-12-20T00:48:01;98984.09;;;11.65;100.00
73624;BME280;61921;53.226;-1.296;2022-12-20T00:50:26;98978.99;;;11.75;100.00
73624;BME280;61921;53.226;-1.296;2022-12-20T00:52:51;98982.20;;;11.95;100.00
73624;BME280;61921;53.226;-1.296;2022-12-20T00:55:17;98986.41;;;12.02;100.00
73624;BME280;61921;53.226;-1.296;2022-12-20T00:57:42;98990.30;;;12.10;100.00
73624;BME280;61921;53.226;-1.296;2022-12-20T01:00:09;98985.22;;;12.18;100.00
73624;BME280;61921;53.226;-1.296;2022-12-20T01:02:33;98984.67;;;12.11;100.00
73624;BME280;61921;53.226;-1.296;2022-12-20T01:04:58;98987.22;;;12.08;100.00
73624;BME280;61921;53.226;-1.296;2022-12-20T01:07:23;98989.05;;;12.08;100.00
73624;BME280;61921;53.226;-1.296;2022-12-20T01:09:49;98990.26;;;11.91;100.00
73624;BME280;61921;53.226;-1.296;2022-12-20T01:12:14;98985.11;;;11.74;99.84
73624;BME280;61921;53.226;-1.296;2022-12-20T01:14:40;98983.86;;;11.66;100.00
73624;BME280;61921;53.226;-1.296;2022-12-20T01:17:05;98981.07;;;11.71;99.66
73624;BME280;61921;53.226;-1.296;2022-12-20T01:19:30;98980.61;;;11.71;99.70
73624;BME280;61921;53.226;-1.296;2022-12-20T01:21:55;98987.61;;;11.65;99.17
73624;BME280;61921;53.226;-1.296;2022-12-20T01:24:21;98983.73;;;11.71;99.04
73624;BME280;61921;53.226;-1.296;2022-12-20T01:26:46;98988.90;;;11.73;98.54
73624;BME280;61921;53.226;-1.296;2022-12-20T01:29:11;98992.66;;;11.46;97.18
73624;BME280;61921;53.226;-1.296;2022-12-20T01:31:37;98990.66;;;11.49;97.28
73624;BME280;61921;53.226;-1.296;2022-12-20T01:34:02;98988.99;;;11.45;97.70
73624;BME280;61921;53.226;-1.296;2022-12-20T01:36:29;98994.10;;;11.45;97.42
73624;BME280;61921;53.226;-1.296;2022-12-20T01:38:56;98998.94;;;11.54;97.01
73624;BME280;61921;53.226;-1.296;2022-12-20T01:41:20;99001.16;;;11.57;96.59
73624;BME280;61921;53.226;-1.296;2022-12-20T01:43:46;99007.18;;;11.63;96.06
73624;BME280;61921;53.226;-1.296;2022-12-20T01:46:09;99002.63;;;11.86;95.87
73624;BME280;61921;53.226;-1.296;2022-12-20T01:48:34;99002.80;;;11.92;95.15
73624;BME280;61921;53.226;-1.296;2022-12-20T01:51:00;98996.77;;;11.88;95.27
73624;BME280;61921;53.226;-1.296;2022-12-20T01:53:25;98996.41;;;11.72;92.73
73624;BME280;61921;53.226;-1.296;2022-12-20T01:55:50;98995.55;;;11.84;93.15
73624;BME280;61921;53.226;-1.296;2022-12-20T01:58:17;98994.92;;;11.89;93.35
73624;BME280;61921;53.226;-1.296;2022-12-20T02:00:41;98991.72;;;11.97;93.03
73624;BME280;61921;53.226;-1.296;2022-12-20T02:03:08;98981.89;;;11.96;92.37
73624;BME280;61921;53.226;-1.296;2022-12-20T02:05:33;98979.34;;;12.05;92.65
73624;BME280;61921;53.226;-1.296;2022-12-20T02:07:57;98984.89;;;12.12;91.83
73624;BME280;61921;53.226;-1.296;2022-12-20T02:10:25;98990.13;;;12.09;91.15
73624;BME280;61921;53.226;-1.296;2022-12-20T02:12:49;98989.58;;;12.06;91.96
73624;BME280;61921;53.226;-1.296;2022-12-20T02:15:24;98989.40;;;12.10;90.84
73624;BME280;61921;53.226;-1.296;2022-12-20T02:17:46;98987.39;;;12.19;91.90
73624;BME280;61921;53.226;-1.296;2022-12-20T02:22:38;98993.88;;;12.15;90.62
73624;BME280;61921;53.226;-1.296;2022-12-20T02:25:09;99000.78;;;12.12;90.46
73624;BME280;61921;53.226;-1.296;2022-12-20T02:27:31;98992.31;;;12.20;90.98
73624;BME280;61921;53.226;-1.296;2022-12-20T02:32:15;98993.85;;;12.09;90.68
73624;BME280;61921;53.226;-1.296;2022-12-20T02:34:36;98996.98;;;12.05;89.98
73624;BME280;61921;53.226;-1.296;2022-12-20T02:37:01;98998.12;;;12.05;90.75
73624;BME280;61921;53.226;-1.296;2022-12-20T02:39:29;99000.26;;;12.11;90.50
73624;BME280;61921;53.226;-1.296;2022-12-20T02:41:55;99012.11;;;11.90;89.53
73624;BME280;61921;53.226;-1.296;2022-12-20T02:44:19;99022.30;;;11.87;90.21
73624;BME280;61921;53.226;-1.296;2022-12-20T02:46:43;99029.11;;;11.75;90.43
73624;BME280;61921;53.226;-1.296;2022-12-20T02:49:16;99032.37;;;11.76;90.94
73624;BME280;61921;53.226;-1.296;2022-12-20T02:51:34;99036.72;;;11.68;90.77
73624;BME280;61921;53.226;-1.296;2022-12-20T02:53:59;99040.05;;;11.44;91.16
73624;BME280;61921;53.226;-1.296;2022-12-20T02:56:27;99040.69;;;11.32;92.39
73624;BME280;61921;53.226;-1.296;2022-12-20T02:58:51;99039.77;;;11.24;92.66
73624;BME280;61921;53.226;-1.296;2022-12-20T03:01:20;99043.16;;;11.11;93.10
73624;BME280;61921;53.226;-1.296;2022-12-20T03:03:40;99041.58;;;11.11;92.75
73624;BME280;61921;53.226;-1.296;2022-12-20T03:06:06;99033.07;;;11.11;93.38
73624;BME280;61921;53.226;-1.296;2022-12-20T03:08:30;99022.32;;;10.94;93.14
73624;BME280;61921;53.226;-1.296;2022-12-20T03:10:56;99019.25;;;10.98;93.30
73624;BME280;61921;53.226;-1.296;2022-12-20T03:13:22;99014.95;;;11.02;92.85
73624;BME280;61921;53.226;-1.296;2022-12-20T03:15:46;99011.42;;;11.11;93.59
73624;BME280;61921;53.226;-1.296;2022-12-20T03:18:12;99006.85;;;11.01;91.83
73624;BME280;61921;53.226;-1.296;2022-12-20T03:20:37;99003.01;;;11.15;92.71
73624;BME280;61921;53.226;-1.296;2022-12-20T03:23:03;99001.77;;;11.22;92.25
73624;BME280;61921;53.226;-1.296;2022-12-20T03:25:28;99011.03;;;11.31;92.16
73624;BME280;61921;53.226;-1.296;2022-12-20T03:27:53;99009.71;;;11.31;92.12
73624;BME280;61921;53.226;-1.296;2022-12-20T03:30:19;99002.76;;;11.29;91.00
73624;BME280;61921;53.226;-1.296;2022-12-20T03:32:44;99003.07;;;11.30;91.46
73624;BME280;61921;53.226;-1.296;2022-12-20T03:35:09;98997.96;;;11.33;90.87
73624;BME280;61921;53.226;-1.296;2022-12-20T03:37:36;99000.91;;;11.32;90.58
73624;BME280;61921;53.226;-1.296;2022-12-20T03:40:00;99006.23;;;11.32;90.48
73624;BME280;61921;53.226;-1.296;2022-12-20T03:42:25;99010.84;;;11.30;90.80
73624;BME280;61921;53.226;-1.296;2022-12-20T03:44:51;99013.88;;;11.23;90.56
73624;BME280;61921;53.226;-1.296;2022-12-20T03:47:16;99018.09;;;11.12;91.19
73624;BME280;61921;53.226;-1.296;2022-12-20T03:49:42;99025.64;;;11.09;91.23
73624;BME280;61921;53.226;-1.296;2022-12-20T03:52:09;99028.52;;;10.97;92.08
73624;BME280;61921;53.226;-1.296;2022-12-20T03:54:32;99032.60;;;10.97;92.07
73624;BME280;61921;53.226;-1.296;2022-12-20T03:56:58;99039.50;;;10.92;92.57
73624;BME280;61921;53.226;-1.296;2022-12-20T03:59:23;99047.40;;;10.84;92.76
73624;BME280;61921;53.226;-1.296;2022-12-20T04:01:48;99050.66;;;10.92;92.35
73624;BME280;61921;53.226;-1.296;2022-12-20T04:04:14;99056.96;;;10.83;92.66
73624;BME280;61921;53.226;-1.296;2022-12-20T04:06:40;99057.44;;;10.74;93.15
73624;BME280;61921;53.226;-1.296;2022-12-20T04:09:05;99056.87;;;10.79;93.35
73624;BME280;61921;53.226;-1.296;2022-12-20T04:11:30;99054.98;;;10.80;93.38
73624;BME280;61921;53.226;-1.296;2022-12-20T04:13:55;99049.83;;;10.72;92.85
73624;BME280;61921;53.226;-1.296;2022-12-20T04:16:22;99039.22;;;10.79;93.20
73624;BME280;61921;53.226;-1.296;2022-12-20T04:18:46;99034.96;;;10.90;92.98
73624;BME280;61921;53.226;-1.296;2022-12-20T04:21:12;99030.59;;;10.87;93.15
73624;BME280;61921;53.226;-1.296;2022-12-20T04:23:38;99031.34;;;10.60;92.86
73624;BME280;61921;53.226;-1.296;2022-12-20T04:26:04;99028.92;;;10.53;93.15
73624;BME280;61921;53.226;-1.296;2022-12-20T04:28:28;99024.96;;;10.68;93.08
73624;BME280;61921;53.226;-1.296;2022-12-20T04:30:53;99018.81;;;10.67;93.80
73624;BME280;61921;53.226;-1.296;2022-12-20T04:33:18;99006.76;;;10.81;92.67
73624;BME280;61921;53.226;-1.296;2022-12-20T04:35:44;99008.03;;;10.77;92.62
73624;BME280;61921;53.226;-1.296;2022-12-20T04:38:09;99006.51;;;10.89;92.78
73624;BME280;61921;53.226;-1.296;2022-12-20T04:40:34;99019.00;;;10.72;92.68
73624;BME280;61921;53.226;-1.296;2022-12-20T04:43:00;99027.09;;;10.58;92.84
73624;BME280;61921;53.226;-1.296;2022-12-20T04:45:25;99026.50;;;10.27;94.25
73624;BME280;61921;53.226;-1.296;2022-12-20T04:47:51;99031.07;;;10.19;94.63
73624;BME280;61921;53.226;-1.296;2022-12-20T04:50:16;99030.56;;;10.23;94.71
73624;BME280;61921;53.226;-1.296;2022-12-20T04:52:41;99032.20;;;10.09;94.68
73624;BME280;61921;53.226;-1.296;2022-12-20T04:55:07;99028.61;;;10.01;94.91
73624;BME280;61921;53.226;-1.296;2022-12-20T04:57:32;99029.69;;;10.10;94.92
73624;BME280;61921;53.226;-1.296;2022-12-20T04:59:57;99029.86;;;10.27;94.78
73624;BME280;61921;53.226;-1.296;2022-12-20T05:02:23;99032.07;;;10.17;94.57
73624;BME280;61921;53.226;-1.296;2022-12-20T05:04:48;99028.74;;;10.35;94.77
73624;BME280;61921;53.226;-1.296;2022-12-20T05:07:13;99032.30;;;10.47;93.86
73624;BME280;61921;53.226;-1.296;2022-12-20T05:09:39;99030.13;;;10.56;92.97
73624;BME280;61921;53.226;-1.296;2022-12-20T05:12:04;99028.88;;;10.63;92.47
73624;BME280;61921;53.226;-1.296;2022-12-20T05:14:29;99020.00;;;10.63;92.24
73624;BME280;61921;53.226;-1.296;2022-12-20T05:16:55;99022.38;;;10.61;92.18
73624;BME280;61921;53.226;-1.296;2022-12-20T05:19:20;99019.12;;;10.70;92.03
73624;BME280;61921;53.226;-1.296;2022-12-20T05:21:46;99020.87;;;10.67;91.44
73624;BME280;61921;53.226;-1.296;2022-12-20T05:24:11;99019.71;;;10.49;91.44
73624;BME280;61921;53.226;-1.296;2022-12-20T05:26:37;99023.71;;;10.49;92.14
73624;BME280;61921;53.226;-1.296;2022-12-20T05:29:02;99030.99;;;10.53;91.86
73624;BME280;61921;53.226;-1.296;2022-12-20T05:31:27;99035.59;;;10.41;91.80
73624;BME280;61921;53.226;-1.296;2022-12-20T05:33:52;99033.11;;;10.45;92.00
73624;BME280;61921;53.226;-1.296;2022-12-20T05:36:18;99037.72;;;10.30;91.93
73624;BME280;61921;53.226;-1.296;2022-12-20T05:38:43;99041.03;;;10.31;92.04
73624;BME280;61921;53.226;-1.296;2022-12-20T05:41:09;99043.04;;;10.22;92.37
73624;BME280;61921;53.226;-1.296;2022-12-20T05:43:34;99049.89;;;10.23;92.10
73624;BME280;61921;53.226;-1.296;2022-12-20T05:45:59;99054.26;;;10.14;92.25
73624;BME280;61921;53.226;-1.296;2022-12-20T05:48:25;99048.95;;;10.15;92.69
73624;BME280;61921;53.226;-1.296;2022-12-20T05:50:50;99048.28;;;10.12;92.72
73624;BME280;61921;53.226;-1.296;2022-12-20T05:53:16;99046.04;;;10.12;93.01
73624;BME280;61921;53.226;-1.296;2022-12-20T05:55:43;99054.83;;;9.77;92.56
73624;BME280;61921;53.226;-1.296;2022-12-20T05:58:07;99061.07;;;9.69;93.56
73624;BME280;61921;53.226;-1.296;2022-12-20T06:00:32;99062.70;;;9.47;93.62
73624;BME280;61921;53.226;-1.296;2022-12-20T06:02:57;99069.64;;;9.58;94.43
73624;BME280;61921;53.226;-1.296;2022-12-20T06:05:23;99072.37;;;9.59;94.17
73624;BME280;61921;53.226;-1.296;2022-12-20T06:07:48;99077.16;;;9.55;94.12
73624;BME280;61921;53.226;-1.296;2022-12-20T06:10:14;99084.56;;;9.59;93.64
73624;BME280;61921;53.226;-1.296;2022-12-20T06:12:39;99089.71;;;9.40;93.62
73624;BME280;61921;53.226;-1.296;2022-12-20T06:15:05;99097.45;;;9.45;94.61
73624;BME280;61921;53.226;-1.296;2022-12-20T06:17:30;99107.06;;;9.53;93.94
73624;BME280;61921;53.226;-1.296;2022-12-20T06:19:55;99105.90;;;9.47;93.44
73624;BME280;61921;53.226;-1.296;2022-12-20T06:22:21;99101.99;;;9.42;93.57
73624;BME280;61921;53.226;-1.296;2022-12-20T06:24:46;99100.28;;;9.48;93.27
73624;BME280;61921;53.226;-1.296;2022-12-20T06:27:12;99100.16;;;9.39;93.02
73624;BME280;61921;53.226;-1.296;2022-12-20T06:29:37;99103.45;;;9.25;92.69
73624;BME280;61921;53.226;-1.296;2022-12-20T06:32:03;99103.12;;;9.16;92.68
73624;BME280;61921;53.226;-1.296;2022-12-20T06:34:28;99107.77;;;9.24;92.66
73624;BME280;61921;53.226;-1.296;2022-12-20T06:36:53;99107.00;;;9.13;92.17
73624;BME280;61921;53.226;-1.296;2022-12-20T06:39:19;99108.68;;;9.23;92.15
73624;BME280;61921;53.226;-1.296;2022-12-20T06:41:44;99107.79;;;9.18;92.26
73624;BME280;61921;53.226;-1.296;2022-12-20T06:44:10;99106.97;;;9.12;92.26
73624;BME280;61921;53.226;-1.296;2022-12-20T06:46:35;99114.79;;;9.15;92.16
73624;BME280;61921;53.226;-1.296;2022-12-20T06:49:01;99120.41;;;9.05;91.94
73624;BME280;61921;53.226;-1.296;2022-12-20T06:51:26;99124.94;;;9.01;91.65
73624;BME280;61921;53.226;-1.296;2022-12-20T06:53:51;99133.13;;;9.03;91.34
73624;BME280;61921;53.226;-1.296;2022-12-20T06:56:17;99140.44;;;8.85;91.40
73624;BME280;61921;53.226;-1.296;2022-12-20T06:58:44;99145.72;;;8.84;91.49
73624;BME280;61921;53.226;-1.296;2022-12-20T07:01:08;99146.29;;;8.66;92.51
73624;BME280;61921;53.226;-1.296;2022-12-20T07:03:33;99157.28;;;8.49;93.34
73624;BME280;61921;53.226;-1.296;2022-12-20T07:05:59;99158.25;;;8.49;93.42
73624;BME280;61921;53.226;-1.296;2022-12-20T07:08:24;99159.17;;;8.46;93.53
73624;BME280;61921;53.226;-1.296;2022-12-20T07:10:50;99159.13;;;8.23;94.64
73624;BME280;61921;53.226;-1.296;2022-12-20T07:13:15;99157.67;;;8.21;94.77
73624;BME280;61921;53.226;-1.296;2022-12-20T07:15:41;99165.86;;;8.08;95.76
73624;BME280;61921;53.226;-1.296;2022-12-20T07:18:06;99171.57;;;7.95;96.52
73624;BME280;61921;53.226;-1.296;2022-12-20T07:20:31;99177.39;;;7.98;96.52
73624;BME280;61921;53.226;-1.296;2022-12-20T07:22:57;99182.43;;;7.84;97.69
73624;BME280;61921;53.226;-1.296;2022-12-20T07:25:22;99183.35;;;7.83;97.96
73624;BME280;61921;53.226;-1.296;2022-12-20T07:27:48;99189.78;;;7.93;97.77
73624;BME280;61921;53.226;-1.296;2022-12-20T07:30:13;99191.66;;;7.94;97.66
73624;BME280;61921;53.226;-1.296;2022-12-20T07:32:39;99192.11;;;7.95;97.63
73624;BME280;61921;53.226;-1.296;2022-12-20T07:35:05;99195.87;;;7.91;97.99
73624;BME280;61921;53.226;-1.296;2022-12-20T07:37:30;99193.67;;;7.95;97.81
73624;BME280;61921;53.226;-1.296;2022-12-20T07:39:55;99194.49;;;7.97;97.69
73624;BME280;61921;53.226;-1.296;2022-12-20T07:42:21;99200.93;;;7.85;97.98
73624;BME280;61921;53.226;-1.296;2022-12-20T07:44:46;99201.48;;;7.82;98.52
73624;BME280;61921;53.226;-1.296;2022-12-20T07:47:12;99208.54;;;7.81;97.84
73624;BME280;61921;53.226;-1.296;2022-12-20T07:49:37;99207.93;;;7.73;98.05
73624;BME280;61921;53.226;-1.296;2022-12-20T07:52:03;99209.88;;;7.73;97.81
73624;BME280;61921;53.226;-1.296;2022-12-20T07:54:31;99215.47;;;7.68;98.14
73624;BME280;61921;53.226;-1.296;2022-12-20T07:56:57;99216.10;;;7.53;98.87
73624;BME280;61921;53.226;-1.296;2022-12-20T07:59:22;99217.77;;;7.54;99.45
73624;BME280;61921;53.226;-1.296;2022-12-20T08:01:45;99214.72;;;7.51;99.40
73624;BME280;61921;53.226;-1.296;2022-12-20T08:04:13;99222.45;;;7.50;99.69
73624;BME280;61921;53.226;-1.296;2022-12-20T08:06:36;99222.82;;;7.41;99.90
73624;BME280;61921;53.226;-1.296;2022-12-20T08:09:04;99226.90;;;7.46;99.95
73624;BME280;61921;53.226;-1.296;2022-12-20T08:11:28;99232.54;;;7.41;100.00
73624;BME280;61921;53.226;-1.296;2022-12-20T08:13:53;99233.90;;;7.43;100.00
73624;BME280;61921;53.226;-1.296;2022-12-20T08:16:18;99239.87;;;7.36;100.00
73624;BME280;61921;53.226;-1.296;2022-12-20T08:18:44;99241.00;;;7.37;100.00
73624;BME280;61921;53.226;-1.296;2022-12-20T08:21:09;99241.43;;;7.43;100.00
73624;BME280;61921;53.226;-1.296;2022-12-20T08:23:34;99243.05;;;7.39;100.00
73624;BME280;61921;53.226;-1.296;2022-12-20T08:26:00;99247.83;;;7.39;100.00
73624;BME280;61921;53.226;-1.296;2022-12-20T08:28:25;99249.14;;;7.36;100.00
73624;BME280;61921;53.226;-1.296;2022-12-20T08:30:51;99248.31;;;7.40;100.00
73624;BME280;61921;53.226;-1.296;2022-12-20T08:33:16;99248.78;;;7.43;100.00
73624;BME280;61921;53.226;-1.296;2022-12-20T08:35:41;99251.41;;;7.32;100.00
73624;BME280;61921;53.226;-1.296;2022-12-20T08:38:07;99255.45;;;7.38;100.00
73624;BME280;61921;53.226;-1.296;2022-12-20T08:40:32;99260.06;;;7.36;100.00
73624;BME280;61921;53.226;-1.296;2022-12-20T08:42:58;99261.67;;;7.37;100.00
73624;BME280;61921;53.226;-1.296;2022-12-20T08:45:23;99264.17;;;7.33;100.00
73624;BME280;61921;53.226;-1.296;2022-12-20T08:47:49;99273.16;;;7.29;100.00
73624;BME280;61921;53.226;-1.296;2022-12-20T08:50:14;99274.22;;;7.36;100.00
73624;BME280;61921;53.226;-1.296;2022-12-20T08:52:39;99279.44;;;7.33;100.00
73624;BME280;61921;53.226;-1.296;2022-12-20T08:55:05;99280.11;;;7.39;100.00
73624;BME280;61921;53.226;-1.296;2022-12-20T08:57:30;99287.80;;;7.44;100.00
73624;BME280;61921;53.226;-1.296;2022-12-20T08:59:56;99294.36;;;7.47;100.00
73624;BME280;61921;53.226;-1.296;2022-12-20T09:02:22;99291.07;;;7.49;100.00
73624;BME280;61921;53.226;-1.296;2022-12-20T09:04:47;99293.92;;;7.45;100.00
73624;BME280;61921;53.226;-1.296;2022-12-20T09:07:12;99288.78;;;7.50;100.00
73624;BME280;61921;53.226;-1.296;2022-12-20T09:09:38;99291.54;;;7.46;100.00
73624;BME280;61921;53.226;-1.296;2022-12-20T09:12:04;99289.07;;;7.50;100.00
73624;BME280;61921;53.226;-1.296;2022-12-20T09:14:29;99295.13;;;7.53;100.00
73624;BME280;61921;53.226;-1.296;2022-12-20T09:16:55;99300.26;;;7.56;99.99
73624;BME280;61921;53.226;-1.296;2022-12-20T09:19:20;99303.29;;;7.58;100.00
73624;BME280;61921;53.226;-1.296;2022-12-20T09:21:45;99297.74;;;7.61;99.93
73624;BME280;61921;53.226;-1.296;2022-12-20T09:24:11;99298.32;;;7.67;99.53
73624;BME280;61921;53.226;-1.296;2022-12-20T09:26:36;99295.07;;;7.75;99.20
73624;BME280;61921;53.226;-1.296;2022-12-20T09:29:02;99307.11;;;7.75;98.60
73624;BME280;61921;53.226;-1.296;2022-12-20T09:31:27;99310.40;;;7.83;98.28
73624;BME280;61921;53.226;-1.296;2022-12-20T09:33:54;99311.85;;;7.81;98.22
73624;BME280;61921;53.226;-1.296;2022-12-20T09:36:21;99318.08;;;7.83;97.95
73624;BME280;61921;53.226;-1.296;2022-12-20T09:38:44;99324.15;;;7.89;97.80
73624;BME280;61921;53.226;-1.296;2022-12-20T09:41:16;99324.78;;;7.98;97.51
73624;BME280;61921;53.226;-1.296;2022-12-20T09:43:36;99329.60;;;8.04;97.16
73624;BME280;61921;53.226;-1.296;2022-12-20T09:46:02;99338.42;;;8.03;96.91
73624;BME280;61921;53.226;-1.296;2022-12-20T09:48:30;99341.18;;;8.11;96.64
73624;BME280;61921;53.226;-1.296;2022-12-20T09:50:57;99339.95;;;8.14;96.63
73624;BME280;61921;53.226;-1.296;2022-12-20T09:53:27;99343.34;;;8.16;96.49
73624;BME280;61921;53.226;-1.296;2022-12-20T09:55:46;99353.37;;;8.19;96.52
73624;BME280;61921;53.226;-1.296;2022-12-20T09:58:26;99346.10;;;8.19;96.34
73624;BME280;61921;53.226;-1.296;2022-12-20T10:00:34;99346.13;;;8.15;96.26
73624;BME280;61921;53.226;-1.296;2022-12-20T10:03:02;99350.29;;;8.19;96.69
73624;BME280;61921;53.226;-1.296;2022-12-20T10:05:31;99353.15;;;8.20;96.31
73624;BME280;61921;53.226;-1.296;2022-12-20T10:07:54;99356.10;;;8.32;96.08
73624;BME280;61921;53.226;-1.296;2022-12-20T10:10:31;99358.68;;;8.36;95.78
73624;BME280;61921;53.226;-1.296;2022-12-20T10:12:45;99362.22;;;8.31;96.00
73624;BME280;61921;53.226;-1.296;2022-12-20T10:15:16;99364.98;;;8.33;96.11
73624;BME280;61921;53.226;-1.296;2022-12-20T10:17:40;99363.06;;;8.37;96.16
73624;BME280;61921;53.226;-1.296;2022-12-20T10:20:06;99365.63;;;8.49;95.85
73624;BME280;61921;53.226;-1.296;2022-12-20T10:22:27;99371.99;;;8.52;95.56
73624;BME280;61921;53.226;-1.296;2022-12-20T10:24:54;99376.51;;;8.67;95.24
73624;BME280;61921;53.226;-1.296;2022-12-20T10:27:15;99372.85;;;8.59;95.07
73624;BME280;61921;53.226;-1.296;2022-12-20T10:29:39;99378.43;;;8.50;94.76
73624;BME280;61921;53.226;-1.296;2022-12-20T10:32:12;99373.83;;;8.59;94.59
73624;BME280;61921;53.226;-1.296;2022-12-20T10:34:30;99377.90;;;8.62;94.99
73624;BME280;61921;53.226;-1.296;2022-12-20T10:39:38;99386.66;;;8.79;95.12
73624;BME280;61921;53.226;-1.296;2022-12-20T10:41:48;99384.95;;;8.83;94.35
73624;BME280;61921;53.226;-1.296;2022-12-20T10:44:19;99385.67;;;8.80;94.11
73624;BME280;61921;53.226;-1.296;2022-12-20T10:46:39;99383.22;;;8.73;94.30
73624;BME280;61921;53.226;-1.296;2022-12-20T10:51:28;99385.34;;;8.93;94.54
73624;BME280;61921;53.226;-1.296;2022-12-20T10:53:56;99391.71;;;8.83;93.70
73624;BME280;61921;53.226;-1.296;2022-12-20T10:56:21;99390.83;;;9.01;93.94
73624;BME280;61921;53.226;-1.296;2022-12-20T10:58:51;99396.73;;;9.02;93.17
73624;BME280;61921;53.226;-1.296;2022-12-20T11:01:13;99407.57;;;9.01;93.00
73624;BME280;61921;53.226;-1.296;2022-12-20T11:06:02;99393.72;;;9.07;93.58
73624;BME280;61921;53.226;-1.296;2022-12-20T11:08:27;99393.54;;;9.07;93.30
73624;BME280;61921;53.226;-1.296;2022-12-20T11:13:22;99394.64;;;9.01;92.04
73624;BME280;61921;53.226;-1.296;2022-12-20T11:15:47;99401.92;;;9.15;92.38
73624;BME280;61921;53.226;-1.296;2022-12-20T11:18:12;99398.13;;;9.17;92.05
73624;BME280;61921;53.226;-1.296;2022-12-20T11:20:37;99394.63;;;9.26;91.06
73624;BME280;61921;53.226;-1.296;2022-12-20T11:23:06;99398.17;;;9.38;91.90
73624;BME280;61921;53.226;-1.296;2022-12-20T11:25:38;99394.99;;;9.46;91.05
73624;BME280;61921;53.226;-1.296;2022-12-20T11:27:56;99393.37;;;9.40;90.41
73624;BME280;61921;53.226;-1.296;2022-12-20T11:30:17;99391.98;;;9.49;90.81
73624;BME280;61921;53.226;-1.296;2022-12-20T11:32:55;99390.01;;;9.58;89.64
73624;BME280;61921;53.226;-1.296;2022-12-20T11:35:11;99397.09;;;9.55;89.61
73624;BME280;61921;53.226;-1.296;2022-12-20T11:37:36;99398.07;;;9.64;89.42
73624;BME280;61921;53.226;-1.296;2022-12-20T11:40:05;99390.96;;;9.65;89.03
73624;BME280;61921;53.226;-1.296;2022-12-20T11:42:28;99387.04;;;9.71;89.66
73624;BME280;61921;53.226;-1.296;2022-12-20T11:44:55;99393.21;;;9.66;88.88
73624;BME280;61921;53.226;-1.296;2022-12-20T11:47:27;99394.66;;;9.78;88.93
73624;BME280;61921;53.226;-1.296;2022-12-20T11:49:57;99390.47;;;9.84;88.88
73624;BME280;61921;53.226;-1.296;2022-12-20T11:52:08;99392.80;;;9.88;89.23
73624;BME280;61921;53.226;-1.296;2022-12-20T11:54:33;99396.11;;;9.94;88.50
73624;BME280;61921;53.226;-1.296;2022-12-20T11:56:58;99396.47;;;9.97;88.67
73624;BME280;61921;53.226;-1.296;2022-12-20T11:59:25;99393.84;;;9.98;88.47
73624;BME280;61921;53.226;-1.296;2022-12-20T12:01:49;99383.72;;;9.99;88.11
73624;BME280;61921;53.226;-1.296;2022-12-20T12:04:13;99383.44;;;10.04;88.16
73624;BME280;61921;53.226;-1.296;2022-12-20T12:06:38;99382.15;;;10.00;87.52
73624;BME280;61921;53.226;-1.296;2022-12-20T12:09:07;99374.94;;;9.99;87.70
73624;BME280;61921;53.226;-1.296;2022-12-20T12:11:29;99375.04;;;10.12;87.73
73624;BME280;61921;53.226;-1.296;2022-12-20T12:13:52;99373.25;;;10.25;86.22
73624;BME280;61921;53.226;-1.296;2022-12-20T12:16:20;99373.28;;;10.25;86.25
73624;BME280;61921;53.226;-1.296;2022-12-20T12:18:42;99373.95;;;10.20;85.14
73624;BME280;61921;53.226;-1.296;2022-12-20T12:21:10;99376.74;;;10.20;85.94
73624;BME280;61921;53.226;-1.296;2022-12-20T12:23:40;99367.31;;;10.06;84.58
73624;BME280;61921;53.226;-1.296;2022-12-20T12:26:03;99374.89;;;10.15;84.25
73624;BME280;61921;53.226;-1.296;2022-12-20T12:28:24;99377.20;;;10.20;83.65
73624;BME280;61921;53.226;-1.296;2022-12-20T12:30:54;99375.81;;;10.31;84.37
73624;BME280;61921;53.226;-1.296;2022-12-20T12:33:18;99369.47;;;10.21;84.44
73624;BME280;61921;53.226;-1.296;2022-12-20T12:36:00;99373.99;;;10.36;83.81
73624;BME280;61921;53.226;-1.296;2022-12-20T12:40:42;99381.72;;;10.26;84.20
73624;BME280;61921;53.226;-1.296;2022-12-20T12:43:08;99385.36;;;10.30;83.44
73624;BME280;61921;53.226;-1.296;2022-12-20T12:45:24;99389.25;;;10.47;83.07
73624;BME280;61921;53.226;-1.296;2022-12-20T12:47:50;99382.82;;;10.66;83.06
73624;BME280;61921;53.226;-1.296;2022-12-20T12:50:20;99381.10;;;10.72;81.59
73624;BME280;61921;53.226;-1.296;2022-12-20T12:52:43;99384.56;;;10.71;81.51
73624;BME280;61921;53.226;-1.296;2022-12-20T12:55:04;99378.02;;;10.57;80.41
73624;BME280;61921;53.226;-1.296;2022-12-20T12:57:31;99381.49;;;10.60;80.93
73624;BME280;61921;53.226;-1.296;2022-12-20T12:59:53;99378.29;;;10.70;80.70